sensor_id;sensor_type;location;lat;lon;timestamp;pressure;altitude;pressure_sealevel;temperature;humidity
68616;BME280;57261;47.504;19.084;2023-01-10T00:00:27;99112.13;;;13.82;68.11
68616;BME280;57261;47.504;19.084;2023-01-10T00:03:34;99111.78;;;13.88;68.01
68616;BME280;57261;47.504;19.084;2023-01-10T00:06:34;99104.09;;;13.86;67.50
68616;BME280;57261;47.504;19.084;2023-01-10T00:09:34;99112.38;;;13.77;66.77
68616;BME280;57261;47.504;19.084;2023-01-10T00:12:35;99105.38;;;13.64;67.07
68616;BME280;57261;47.504;19.084;2023-01-10T00:15:55;99095.09;;;13.47;66.77
68616;BME280;57261;47.504;19.084;2023-01-10T00:18:56;99098.13;;;13.55;67.35
68616;BME280;57261;47.504;19.084;2023-01-10T00:21:56;99109.13;;;13.58;67.11
68616;BME280;57261;47.504;19.084;2023-01-10T00:24:57;99108.47;;;13.55;67.12
68616;BME280;57261;47.504;19.084;2023-01-10T00:27:57;99105.22;;;13.51;67.24
68616;BME280;57261;47.504;19.084;2023-01-10T00:31:10;99104.69;;;13.76;69.65
68616;BME280;57261;47.504;19.084;2023-01-10T00:34:11;99076.56;;;13.70;68.72
68616;BME280;57261;47.504;19.084;2023-01-10T00:37:12;99093.84;;;13.85;69.32
68616;BME280;57261;47.504;19.084;2023-01-10T00:40:13;99086.06;;;13.69;67.39
68616;BME280;57261;47.504;19.084;2023-01-10T00:43:13;99091.53;;;13.65;66.73
68616;BME280;57261;47.504;19.084;2023-01-10T00:46:33;99098.84;;;13.72;67.76
68616;BME280;57261;47.504;19.084;2023-01-10T00:49:33;99097.59;;;13.79;68.61
68616;BME280;57261;47.504;19.084;2023-01-10T00:52:33;99097.75;;;13.76;67.04
68616;BME280;57261;47.504;19.084;2023-01-10T00:55:35;99095.09;;;13.78;69.21
68616;BME280;57261;47.504;19.084;2023-01-10T00:58:35;99095.47;;;13.86;67.87
68616;BME280;57261;47.504;19.084;2023-01-10T01:01:35;99091.19;;;13.71;66.75
68616;BME280;57261;47.504;19.084;2023-01-10T01:04:36;99102.84;;;13.62;66.82
68616;BME280;57261;47.504;19.084;2023-01-10T01:07:36;99105.72;;;13.58;67.21
68616;BME280;57261;47.504;19.084;2023-01-10T01:10:39;99104.38;;;13.51;66.64
68616;BME280;57261;47.504;19.084;2023-01-10T01:13:40;99093.84;;;13.54;66.95
68616;BME280;57261;47.504;19.084;2023-01-10T01:16:40;99085.31;;;13.52;66.64
68616;BME280;57261;47.504;19.084;2023-01-10T01:19:40;99086.50;;;13.46;66.50
68616;BME280;57261;47.504;19.084;2023-01-10T01:22:41;99091.69;;;13.62;68.40
68616;BME280;57261;47.504;19.084;2023-01-10T01:25:43;99087.91;;;13.52;66.87
68616;BME280;57261;47.504;19.084;2023-01-10T01:28:43;99087.19;;;13.50;67.10
68616;BME280;57261;47.504;19.084;2023-01-10T01:31:43;99088.25;;;13.46;66.92
68616;BME280;57261;47.504;19.084;2023-01-10T01:34:44;99089.44;;;13.40;67.21
68616;BME280;57261;47.504;19.084;2023-01-10T01:37:44;99094.63;;;13.40;66.96
68616;BME280;57261;47.504;19.084;2023-01-10T01:40:45;99086.09;;;13.38;67.07
68616;BME280;57261;47.504;19.084;2023-01-10T01:44:00;99082.25;;;13.45;67.13
68616;BME280;57261;47.504;19.084;2023-01-10T01:47:17;99086.09;;;13.54;67.52
68616;BME280;57261;47.504;19.084;2023-01-10T01:50:28;99088.09;;;13.49;67.53
68616;BME280;57261;47.504;19.084;2023-01-10T01:56:37;99088.66;;;13.69;67.58
68616;BME280;57261;47.504;19.084;2023-01-10T01:59:42;99096.09;;;13.60;67.44
68616;BME280;57261;47.504;19.084;2023-01-10T02:02:55;99096.19;;;13.74;67.78
68616;BME280;57261;47.504;19.084;2023-01-10T02:05:58;99101.28;;;13.60;67.10
68616;BME280;57261;47.504;19.084;2023-01-10T02:09:07;99114.75;;;13.51;66.72
68616;BME280;57261;47.504;19.084;2023-01-10T02:12:15;99105.69;;;13.42;67.30
68616;BME280;57261;47.504;19.084;2023-01-10T02:15:16;99113.72;;;13.53;67.48
68616;BME280;57261;47.504;19.084;2023-01-10T02:18:17;99104.78;;;13.43;66.97
68616;BME280;57261;47.504;19.084;2023-01-10T02:28:09;99111.31;;;13.50;67.26
68616;BME280;57261;47.504;19.084;2023-01-10T02:34:48;99113.28;;;13.76;68.77
68616;BME280;57261;47.504;19.084;2023-01-10T02:44:46;99100.38;;;14.05;70.57
68616;BME280;57261;47.504;19.084;2023-01-10T02:47:50;99103.31;;;13.99;67.90
68616;BME280;57261;47.504;19.084;2023-01-10T02:50:55;99062.69;;;13.55;66.68
68616;BME280;57261;47.504;19.084;2023-01-10T03:03:40;99100.03;;;13.51;66.96
68616;BME280;57261;47.504;19.084;2023-01-10T03:06:50;99093.44;;;13.46;67.27
68616;BME280;57261;47.504;19.084;2023-01-10T03:13:32;99125.00;;;13.68;68.26
68616;BME280;57261;47.504;19.084;2023-01-10T03:16:35;99136.91;;;13.86;71.37
68616;BME280;57261;47.504;19.084;2023-01-10T03:19:43;99136.31;;;13.96;69.56
68616;BME280;57261;47.504;19.084;2023-01-10T03:22:46;99113.13;;;13.79;67.20
68616;BME280;57261;47.504;19.084;2023-01-10T03:25:48;99131.81;;;13.99;69.22
68616;BME280;57261;47.504;19.084;2023-01-10T03:28:58;99131.56;;;14.04;68.25
68616;BME280;57261;47.504;19.084;2023-01-10T03:32:03;99121.22;;;13.89;67.39
68616;BME280;57261;47.504;19.084;2023-01-10T03:35:05;99129.16;;;13.86;66.70
68616;BME280;57261;47.504;19.084;2023-01-10T03:38:10;99133.75;;;13.81;66.02
68616;BME280;57261;47.504;19.084;2023-01-10T03:41:38;99140.78;;;13.94;68.37
68616;BME280;57261;47.504;19.084;2023-01-10T03:47:57;99143.50;;;14.06;69.55
68616;BME280;57261;47.504;19.084;2023-01-10T03:51:02;99167.84;;;13.89;68.88
68616;BME280;57261;47.504;19.084;2023-01-10T03:54:04;99135.91;;;14.03;69.57
68616;BME280;57261;47.504;19.084;2023-01-10T03:57:05;99142.19;;;14.15;69.48
68616;BME280;57261;47.504;19.084;2023-01-10T04:00:07;99145.78;;;14.12;67.93
68616;BME280;57261;47.504;19.084;2023-01-10T04:03:08;99151.88;;;13.96;66.97
68616;BME280;57261;47.504;19.084;2023-01-10T04:06:09;99169.28;;;13.94;67.45
68616;BME280;57261;47.504;19.084;2023-01-10T04:09:10;99168.75;;;13.88;69.25
68616;BME280;57261;47.504;19.084;2023-01-10T04:12:10;99165.00;;;13.93;67.74
68616;BME280;57261;47.504;19.084;2023-01-10T04:15:11;99156.41;;;13.77;66.73
68616;BME280;57261;47.504;19.084;2023-01-10T04:18:12;99147.03;;;13.75;67.22
68616;BME280;57261;47.504;19.084;2023-01-10T04:21:14;99135.34;;;13.68;67.06
68616;BME280;57261;47.504;19.084;2023-01-10T04:24:15;99142.03;;;13.87;70.46
68616;BME280;57261;47.504;19.084;2023-01-10T04:27:15;99143.84;;;14.00;69.14
68616;BME280;57261;47.504;19.084;2023-01-10T04:30:17;99160.59;;;13.95;67.72
68616;BME280;57261;47.504;19.084;2023-01-10T04:33:18;99152.88;;;13.94;66.78
68616;BME280;57261;47.504;19.084;2023-01-10T04:36:18;99141.78;;;13.76;66.51
68616;BME280;57261;47.504;19.084;2023-01-10T04:39:19;99148.72;;;13.76;67.52
68616;BME280;57261;47.504;19.084;2023-01-10T04:42:19;99146.88;;;13.78;68.06
68616;BME280;57261;47.504;19.084;2023-01-10T04:45:20;99154.72;;;13.76;67.08
68616;BME280;57261;47.504;19.084;2023-01-10T04:48:21;99170.25;;;13.76;69.40
68616;BME280;57261;47.504;19.084;2023-01-10T04:51:21;99154.91;;;13.89;71.20
68616;BME280;57261;47.504;19.084;2023-01-10T04:54:22;99180.63;;;14.07;70.92
68616;BME280;57261;47.504;19.084;2023-01-10T04:57:22;99186.16;;;14.16;68.53
68616;BME280;57261;47.504;19.084;2023-01-10T05:00:26;99171.28;;;14.04;69.43
68616;BME280;57261;47.504;19.084;2023-01-10T05:03:31;99189.56;;;14.17;70.90
68616;BME280;57261;47.504;19.084;2023-01-10T05:06:32;99206.34;;;14.25;71.08
68616;BME280;57261;47.504;19.084;2023-01-10T05:09:32;99206.78;;;14.18;68.91
68616;BME280;57261;47.504;19.084;2023-01-10T05:12:36;99206.22;;;14.13;67.96
68616;BME280;57261;47.504;19.084;2023-01-10T05:15:36;99214.22;;;14.08;67.32
68616;BME280;57261;47.504;19.084;2023-01-10T05:18:36;99198.34;;;13.99;68.98
68616;BME280;57261;47.504;19.084;2023-01-10T05:21:37;99228.28;;;14.20;70.49
68616;BME280;57261;47.504;19.084;2023-01-10T05:24:37;99229.88;;;14.22;70.04
68616;BME280;57261;47.504;19.084;2023-01-10T05:27:40;99223.19;;;14.18;70.10
68616;BME280;57261;47.504;19.084;2023-01-10T05:30:42;99229.69;;;14.25;70.45
68616;BME280;57261;47.504;19.084;2023-01-10T05:33:47;99233.94;;;14.26;69.12
68616;BME280;57261;47.504;19.084;2023-01-10T05:36:47;99234.47;;;14.33;69.85
68616;BME280;57261;47.504;19.084;2023-01-10T05:39:48;99278.63;;;14.31;68.62
68616;BME280;57261;47.504;19.084;2023-01-10T05:42:48;99227.59;;;14.32;69.54
68616;BME280;57261;47.504;19.084;2023-01-10T05:45:49;99224.75;;;14.36;70.16
68616;BME280;57261;47.504;19.084;2023-01-10T05:48:51;99229.94;;;14.36;68.58
68616;BME280;57261;47.504;19.084;2023-01-10T05:51:52;99236.03;;;14.35;69.12
68616;BME280;57261;47.504;19.084;2023-01-10T05:54:54;99243.00;;;14.35;70.62
68616;BME280;57261;47.504;19.084;2023-01-10T05:57:54;99239.72;;;14.31;67.89
68616;BME280;57261;47.504;19.084;2023-01-10T06:00:56;99247.50;;;14.31;69.73
68616;BME280;57261;47.504;19.084;2023-01-10T06:04:03;99255.19;;;14.33;69.59
68616;BME280;57261;47.504;19.084;2023-01-10T06:07:06;99255.75;;;14.38;70.33
68616;BME280;57261;47.504;19.084;2023-01-10T06:10:07;99270.25;;;14.42;69.74
68616;BME280;57261;47.504;19.084;2023-01-10T06:13:08;99276.28;;;14.27;68.33
68616;BME280;57261;47.504;19.084;2023-01-10T06:16:09;99283.84;;;14.30;70.07
68616;BME280;57261;47.504;19.084;2023-01-10T06:19:10;99289.66;;;14.35;69.28
68616;BME280;57261;47.504;19.084;2023-01-10T06:22:10;99257.72;;;14.19;69.36
68616;BME280;57261;47.504;19.084;2023-01-10T06:25:13;99292.63;;;14.27;70.37
68616;BME280;57261;47.504;19.084;2023-01-10T06:28:13;99293.41;;;14.29;70.51
68616;BME280;57261;47.504;19.084;2023-01-10T06:31:13;99309.88;;;14.28;67.99
68616;BME280;57261;47.504;19.084;2023-01-10T06:34:15;99308.44;;;14.23;67.18
68616;BME280;57261;47.504;19.084;2023-01-10T06:37:16;99301.97;;;13.99;65.65
68616;BME280;57261;47.504;19.084;2023-01-10T06:40:16;99320.53;;;14.07;68.00
68616;BME280;57261;47.504;19.084;2023-01-10T06:43:17;99311.88;;;13.91;65.93
68616;BME280;57261;47.504;19.084;2023-01-10T06:46:18;99315.81;;;13.83;66.45
68616;BME280;57261;47.504;19.084;2023-01-10T06:49:19;99320.97;;;13.83;66.18
68616;BME280;57261;47.504;19.084;2023-01-10T06:52:19;99305.19;;;13.55;65.27
68616;BME280;57261;47.504;19.084;2023-01-10T06:55:20;99324.22;;;13.71;66.81
68616;BME280;57261;47.504;19.084;2023-01-10T06:58:20;99321.50;;;13.57;66.01
68616;BME280;57261;47.504;19.084;2023-01-10T07:01:21;99326.72;;;13.55;67.10
68616;BME280;57261;47.504;19.084;2023-01-10T07:04:21;99346.53;;;13.73;68.65
68616;BME280;57261;47.504;19.084;2023-01-10T07:07:22;99349.28;;;13.53;66.38
68616;BME280;57261;47.504;19.084;2023-01-10T07:10:22;99375.47;;;13.81;69.54
68616;BME280;57261;47.504;19.084;2023-01-10T07:13:22;99361.38;;;13.70;69.09
68616;BME280;57261;47.504;19.084;2023-01-10T07:16:23;99389.91;;;13.85;69.74
68616;BME280;57261;47.504;19.084;2023-01-10T07:19:23;99398.22;;;13.92;69.05
68616;BME280;57261;47.504;19.084;2023-01-10T07:22:24;99400.63;;;13.95;69.14
68616;BME280;57261;47.504;19.084;2023-01-10T07:25:26;99405.91;;;13.93;69.96
68616;BME280;57261;47.504;19.084;2023-01-10T07:28:27;99399.44;;;13.85;65.60
68616;BME280;57261;47.504;19.084;2023-01-10T07:31:28;99394.28;;;13.68;67.71
68616;BME280;57261;47.504;19.084;2023-01-10T07:34:28;99412.22;;;13.88;69.19
68616;BME280;57261;47.504;19.084;2023-01-10T07:37:28;99418.63;;;13.98;68.13
68616;BME280;57261;47.504;19.084;2023-01-10T07:40:29;99425.16;;;14.04;69.35
68616;BME280;57261;47.504;19.084;2023-01-10T07:43:31;99412.47;;;13.83;68.14
68616;BME280;57261;47.504;19.084;2023-01-10T07:46:31;99444.06;;;13.90;67.45
68616;BME280;57261;47.504;19.084;2023-01-10T07:49:31;99447.72;;;14.02;69.62
68616;BME280;57261;47.504;19.084;2023-01-10T07:52:32;99453.28;;;14.12;70.57
68616;BME280;57261;47.504;19.084;2023-01-10T07:55:35;99473.72;;;14.01;67.55
68616;BME280;57261;47.504;19.084;2023-01-10T07:58:37;99473.31;;;14.08;69.40
68616;BME280;57261;47.504;19.084;2023-01-10T08:01:38;99473.63;;;14.02;67.28
68616;BME280;57261;47.504;19.084;2023-01-10T08:04:38;99489.78;;;14.07;69.32
68616;BME280;57261;47.504;19.084;2023-01-10T08:07:39;99492.84;;;13.99;66.09
68616;BME280;57261;47.504;19.084;2023-01-10T08:10:40;99517.75;;;14.01;68.82
68616;BME280;57261;47.504;19.084;2023-01-10T08:13:40;99504.41;;;14.08;69.86
68616;BME280;57261;47.504;19.084;2023-01-10T08:16:41;99520.41;;;13.83;65.76
68616;BME280;57261;47.504;19.084;2023-01-10T08:19:41;99517.44;;;13.90;70.26
68616;BME280;57261;47.504;19.084;2023-01-10T08:22:41;99533.22;;;14.02;70.95
68616;BME280;57261;47.504;19.084;2023-01-10T08:25:42;99532.13;;;14.06;69.21
68616;BME280;57261;47.504;19.084;2023-01-10T08:28:43;99533.31;;;14.01;67.73
68616;BME280;57261;47.504;19.084;2023-01-10T08:31:43;99551.34;;;14.02;68.56
68616;BME280;57261;47.504;19.084;2023-01-10T08:34:43;99548.53;;;14.07;69.61
68616;BME280;57261;47.504;19.084;2023-01-10T08:37:44;99546.59;;;14.12;70.25
68616;BME280;57261;47.504;19.084;2023-01-10T08:40:44;99550.75;;;14.14;69.34
68616;BME280;57261;47.504;19.084;2023-01-10T08:43:48;99567.16;;;14.15;68.57
68616;BME280;57261;47.504;19.084;2023-01-10T08:46:49;99576.69;;;14.14;70.32
68616;BME280;57261;47.504;19.084;2023-01-10T08:49:49;99580.19;;;14.13;69.39
68616;BME280;57261;47.504;19.084;2023-01-10T08:52:50;99589.81;;;14.11;69.00
68616;BME280;57261;47.504;19.084;2023-01-10T08:55:50;99590.03;;;14.05;69.85
68616;BME280;57261;47.504;19.084;2023-01-10T08:58:51;99604.41;;;14.12;69.74
68616;BME280;57261;47.504;19.084;2023-01-10T09:01:51;99605.41;;;14.10;69.51
68616;BME280;57261;47.504;19.084;2023-01-10T09:04:51;99614.22;;;14.06;69.15
68616;BME280;57261;47.504;19.084;2023-01-10T09:07:52;99612.53;;;14.05;70.26
68616;BME280;57261;47.504;19.084;2023-01-10T09:10:57;99626.31;;;14.05;70.16
68616;BME280;57261;47.504;19.084;2023-01-10T09:13:59;99634.78;;;14.09;70.11
68616;BME280;57261;47.504;19.084;2023-01-10T09:16:59;99643.09;;;13.99;66.09
68616;BME280;57261;47.504;19.084;2023-01-10T09:20:00;99615.94;;;13.89;70.41
68616;BME280;57261;47.504;19.084;2023-01-10T09:23:07;99650.31;;;14.10;68.68
68616;BME280;57261;47.504;19.084;2023-01-10T09:26:08;99632.41;;;13.88;66.26
68616;BME280;57261;47.504;19.084;2023-01-10T09:29:08;99671.59;;;13.99;68.57
68616;BME280;57261;47.504;19.084;2023-01-10T09:32:08;99672.34;;;14.00;70.09
68616;BME280;57261;47.504;19.084;2023-01-10T09:35:09;99673.91;;;14.04;69.91
68616;BME280;57261;47.504;19.084;2023-01-10T09:38:13;99676.78;;;13.99;68.50
68616;BME280;57261;47.504;19.084;2023-01-10T09:41:33;99703.00;;;14.09;69.47
68616;BME280;57261;47.504;19.084;2023-01-10T09:48:03;99707.44;;;13.89;64.47
68616;BME280;57261;47.504;19.084;2023-01-10T09:54:38;99712.28;;;13.97;70.08
68616;BME280;57261;47.504;19.084;2023-01-10T09:57:40;99716.06;;;13.90;66.08
68616;BME280;57261;47.504;19.084;2023-01-10T10:00:49;99729.34;;;14.00;70.03
68616;BME280;57261;47.504;19.084;2023-01-10T10:03:57;99733.13;;;13.94;69.21
68616;BME280;57261;47.504;19.084;2023-01-10T10:07:02;99731.44;;;13.93;67.70
68616;BME280;57261;47.504;19.084;2023-01-10T10:10:05;99729.22;;;13.85;70.69
68616;BME280;57261;47.504;19.084;2023-01-10T10:16:35;99736.22;;;14.01;70.29
68616;BME280;57261;47.504;19.084;2023-01-10T10:19:51;99710.25;;;13.85;69.83
68616;BME280;57261;47.504;19.084;2023-01-10T10:23:14;99739.00;;;13.97;70.18
68616;BME280;57261;47.504;19.084;2023-01-10T10:26:33;99730.34;;;13.98;69.57
68616;BME280;57261;47.504;19.084;2023-01-10T10:29:44;99746.44;;;13.86;69.10
68616;BME280;57261;47.504;19.084;2023-01-10T10:33:03;99744.88;;;13.82;67.14
68616;BME280;57261;47.504;19.084;2023-01-10T10:36:14;99765.56;;;13.84;70.39
68616;BME280;57261;47.504;19.084;2023-01-10T10:39:26;99762.81;;;13.87;70.08
68616;BME280;57261;47.504;19.084;2023-01-10T10:42:37;99774.44;;;13.97;71.24
68616;BME280;57261;47.504;19.084;2023-01-10T10:45:46;99788.50;;;13.73;64.18
68616;BME280;57261;47.504;19.084;2023-01-10T10:49:00;99787.38;;;13.78;69.25
68616;BME280;57261;47.504;19.084;2023-01-10T10:52:12;99774.09;;;13.67;70.68
68616;BME280;57261;47.504;19.084;2023-01-10T10:55:15;99781.84;;;13.67;70.02
68616;BME280;57261;47.504;19.084;2023-01-10T10:58:17;99800.78;;;13.88;70.33
68616;BME280;57261;47.504;19.084;2023-01-10T11:01:17;99799.66;;;13.93;70.54
68616;BME280;57261;47.504;19.084;2023-01-10T11:04:20;99788.16;;;13.80;69.51
68616;BME280;57261;47.504;19.084;2023-01-10T11:07:23;99819.81;;;13.87;67.61
68616;BME280;57261;47.504;19.084;2023-01-10T11:10:26;99824.72;;;13.74;68.22
68616;BME280;57261;47.504;19.084;2023-01-10T11:17:19;99838.84;;;13.86;66.44
68616;BME280;57261;47.504;19.084;2023-01-10T11:20:19;99840.31;;;13.91;69.84
68616;BME280;57261;47.504;19.084;2023-01-10T11:23:34;99835.84;;;13.56;62.36
68616;BME280;57261;47.504;19.084;2023-01-10T11:26:37;99825.09;;;13.65;70.35
68616;BME280;57261;47.504;19.084;2023-01-10T11:29:45;99844.03;;;13.86;66.94
68616;BME280;57261;47.504;19.084;2023-01-10T11:32:59;99855.78;;;13.93;68.74
68616;BME280;57261;47.504;19.084;2023-01-10T11:36:04;99855.09;;;13.89;70.10
68616;BME280;57261;47.504;19.084;2023-01-10T11:39:05;99862.81;;;13.91;69.71
68616;BME280;57261;47.504;19.084;2023-01-10T11:42:38;99862.25;;;14.02;70.27
68616;BME280;57261;47.504;19.084;2023-01-10T11:45:38;99862.34;;;14.01;70.48
68616;BME280;57261;47.504;19.084;2023-01-10T11:48:48;99869.59;;;13.93;70.57
68616;BME280;57261;47.504;19.084;2023-01-10T11:51:52;99867.03;;;13.93;67.92
68616;BME280;57261;47.504;19.084;2023-01-10T11:54:57;99870.44;;;13.94;69.98
68616;BME280;57261;47.504;19.084;2023-01-10T11:58:09;99875.50;;;13.97;66.04
68616;BME280;57261;47.504;19.084;2023-01-10T12:01:28;99874.97;;;13.89;66.26
68616;BME280;57261;47.504;19.084;2023-01-10T12:04:39;99877.94;;;13.81;65.33
68616;BME280;57261;47.504;19.084;2023-01-10T12:11:00;99892.34;;;13.87;70.57
68616;BME280;57261;47.504;19.084;2023-01-10T12:14:01;99851.69;;;13.69;69.61
68616;BME280;57261;47.504;19.084;2023-01-10T12:17:02;99895.31;;;13.98;69.58
68616;BME280;57261;47.504;19.084;2023-01-10T12:20:05;99910.63;;;14.02;69.32
68616;BME280;57261;47.504;19.084;2023-01-10T12:23:12;99898.94;;;13.94;67.37
68616;BME280;57261;47.504;19.084;2023-01-10T12:26:13;99906.44;;;13.99;70.39
68616;BME280;57261;47.504;19.084;2023-01-10T12:29:16;99911.53;;;13.83;67.83
68616;BME280;57261;47.504;19.084;2023-01-10T12:32:24;99924.72;;;13.97;70.06
68616;BME280;57261;47.504;19.084;2023-01-10T12:35:40;99932.31;;;14.01;70.48
68616;BME280;57261;47.504;19.084;2023-01-10T12:38:53;99931.31;;;14.03;71.08
68616;BME280;57261;47.504;19.084;2023-01-10T12:45:29;99942.06;;;13.95;66.44
68616;BME280;57261;47.504;19.084;2023-01-10T12:48:43;99958.91;;;14.04;69.13
68616;BME280;57261;47.504;19.084;2023-01-10T12:51:48;99948.03;;;13.97;68.92
68616;BME280;57261;47.504;19.084;2023-01-10T12:54:50;99968.22;;;14.08;68.02
68616;BME280;57261;47.504;19.084;2023-01-10T12:57:55;99945.72;;;13.91;70.05
68616;BME280;57261;47.504;19.084;2023-01-10T13:00:58;99968.22;;;14.08;69.71
68616;BME280;57261;47.504;19.084;2023-01-10T13:04:03;99970.03;;;14.06;68.13
68616;BME280;57261;47.504;19.084;2023-01-10T13:07:05;99975.28;;;14.05;70.31
68616;BME280;57261;47.504;19.084;2023-01-10T13:10:16;99978.50;;;14.11;68.82
68616;BME280;57261;47.504;19.084;2023-01-10T13:13:48;99987.81;;;14.15;70.72
68616;BME280;57261;47.504;19.084;2023-01-10T13:16:55;99986.28;;;14.11;69.55
68616;BME280;57261;47.504;19.084;2023-01-10T13:23:31;99995.69;;;14.14;68.48
68616;BME280;57261;47.504;19.084;2023-01-10T13:26:51;100004.63;;;14.05;70.53
68616;BME280;57261;47.504;19.084;2023-01-10T13:29:52;100013.19;;;14.07;67.86
68616;BME280;57261;47.504;19.084;2023-01-10T13:33:20;100020.72;;;14.13;70.50
68616;BME280;57261;47.504;19.084;2023-01-10T13:36:27;100029.72;;;14.05;65.94
68616;BME280;57261;47.504;19.084;2023-01-10T13:42:35;100035.47;;;14.13;70.18
68616;BME280;57261;47.504;19.084;2023-01-10T13:49:25;100056.53;;;14.04;65.32
68616;BME280;57261;47.504;19.084;2023-01-10T13:52:31;100061.59;;;14.07;69.50
68616;BME280;57261;47.504;19.084;2023-01-10T13:58:41;100070.38;;;14.03;69.30
68616;BME280;57261;47.504;19.084;2023-01-10T14:02:01;100062.22;;;13.92;69.91
68616;BME280;57261;47.504;19.084;2023-01-10T14:05:20;100074.59;;;14.05;69.80
68616;BME280;57261;47.504;19.084;2023-01-10T14:08:21;100071.09;;;14.06;70.39
68616;BME280;57261;47.504;19.084;2023-01-10T14:11:25;100067.69;;;14.06;66.54
68616;BME280;57261;47.504;19.084;2023-01-10T14:14:32;100084.31;;;14.00;67.54
68616;BME280;57261;47.504;19.084;2023-01-10T14:17:35;100094.50;;;14.05;68.31
68616;BME280;57261;47.504;19.084;2023-01-10T14:20:36;100104.97;;;14.02;68.67
68616;BME280;57261;47.504;19.084;2023-01-10T14:23:42;100098.97;;;14.01;70.14
68616;BME280;57261;47.504;19.084;2023-01-10T14:26:43;100108.59;;;13.98;67.26
68616;BME280;57261;47.504;19.084;2023-01-10T14:29:56;100103.78;;;13.89;70.19
68616;BME280;57261;47.504;19.084;2023-01-10T14:33:06;100130.78;;;14.05;69.68
68616;BME280;57261;47.504;19.084;2023-01-10T14:36:49;100136.59;;;14.11;68.91
68616;BME280;57261;47.504;19.084;2023-01-10T14:39:51;100107.16;;;13.91;69.00
68616;BME280;57261;47.504;19.084;2023-01-10T14:42:54;100126.03;;;13.95;69.69
68616;BME280;57261;47.504;19.084;2023-01-10T14:49:29;100163.28;;;14.13;66.55
68616;BME280;57261;47.504;19.084;2023-01-10T14:52:32;100162.03;;;14.00;65.96
68616;BME280;57261;47.504;19.084;2023-01-10T14:55:32;100164.41;;;14.06;68.55
68616;BME280;57261;47.504;19.084;2023-01-10T14:58:33;100165.78;;;13.94;66.56
68616;BME280;57261;47.504;19.084;2023-01-10T15:01:33;100171.69;;;13.97;69.42
68616;BME280;57261;47.504;19.084;2023-01-10T15:04:35;100174.09;;;14.01;70.14
68616;BME280;57261;47.504;19.084;2023-01-10T15:07:36;100180.72;;;14.08;68.16
68616;BME280;57261;47.504;19.084;2023-01-10T15:10:40;100182.50;;;14.08;68.11
68616;BME280;57261;47.504;19.084;2023-01-10T15:14:04;100191.94;;;14.10;70.50
68616;BME280;57261;47.504;19.084;2023-01-10T15:17:11;100188.88;;;13.99;67.47
68616;BME280;57261;47.504;19.084;2023-01-10T15:20:18;100189.81;;;13.97;66.70
68616;BME280;57261;47.504;19.084;2023-01-10T15:23:19;100193.38;;;13.95;69.62
68616;BME280;57261;47.504;19.084;2023-01-10T15:26:35;100205.84;;;14.06;69.81
68616;BME280;57261;47.504;19.084;2023-01-10T15:29:39;100188.84;;;13.78;67.81
68616;BME280;57261;47.504;19.084;2023-01-10T15:32:43;100204.66;;;13.94;69.38
68616;BME280;57261;47.504;19.084;2023-01-10T15:35:44;100231.03;;;14.03;70.42
68616;BME280;57261;47.504;19.084;2023-01-10T15:38:46;100230.22;;;14.02;68.97
68616;BME280;57261;47.504;19.084;2023-01-10T15:41:47;100225.94;;;14.01;68.66
68616;BME280;57261;47.504;19.084;2023-01-10T15:44:49;100233.59;;;14.04;69.63
68616;BME280;57261;47.504;19.084;2023-01-10T15:47:54;100237.19;;;14.00;68.61
68616;BME280;57261;47.504;19.084;2023-01-10T15:51:12;100249.38;;;13.99;67.60
68616;BME280;57261;47.504;19.084;2023-01-10T15:57:25;100261.19;;;14.05;69.03
68616;BME280;57261;47.504;19.084;2023-01-10T16:00:28;100245.13;;;13.96;70.40
68616;BME280;57261;47.504;19.084;2023-01-10T16:03:37;100254.13;;;14.10;69.19
68616;BME280;57261;47.504;19.084;2023-01-10T16:06:38;100258.28;;;14.14;69.82
68616;BME280;57261;47.504;19.084;2023-01-10T16:09:40;100263.47;;;14.14;70.00
68616;BME280;57261;47.504;19.084;2023-01-10T16:12:41;100262.75;;;14.09;69.58
68616;BME280;57261;47.504;19.084;2023-01-10T16:16:04;100267.00;;;14.12;69.98
68616;BME280;57261;47.504;19.084;2023-01-10T16:19:07;100245.94;;;13.98;70.07
68616;BME280;57261;47.504;19.084;2023-01-10T16:22:15;100274.63;;;14.16;70.46
68616;BME280;57261;47.504;19.084;2023-01-10T16:25:27;100284.84;;;14.19;70.34
68616;BME280;57261;47.504;19.084;2023-01-10T16:28:31;100279.75;;;14.18;68.39
68616;BME280;57261;47.504;19.084;2023-01-10T16:31:34;100262.13;;;14.03;70.03
68616;BME280;57261;47.504;19.084;2023-01-10T16:34:35;100286.53;;;14.20;67.05
68616;BME280;57261;47.504;19.084;2023-01-10T16:37:35;100288.47;;;14.15;69.33
68616;BME280;57261;47.504;19.084;2023-01-10T16:40:39;100284.13;;;14.16;67.76
68616;BME280;57261;47.504;19.084;2023-01-10T16:43:40;100291.16;;;14.12;69.81
68616;BME280;57261;47.504;19.084;2023-01-10T16:46:40;100305.72;;;14.16;69.83
68616;BME280;57261;47.504;19.084;2023-01-10T16:49:40;100311.75;;;14.17;69.51
68616;BME280;57261;47.504;19.084;2023-01-10T16:52:41;100305.19;;;14.07;67.94
68616;BME280;57261;47.504;19.084;2023-01-10T16:55:47;100308.69;;;14.06;66.29
68616;BME280;57261;47.504;19.084;2023-01-10T16:58:49;100312.19;;;14.05;69.11
68616;BME280;57261;47.504;19.084;2023-01-10T17:01:56;100327.19;;;14.20;69.41
68616;BME280;57261;47.504;19.084;2023-01-10T17:04:57;100334.00;;;14.22;69.58
68616;BME280;57261;47.504;19.084;2023-01-10T17:07:58;100339.25;;;14.21;69.20
68616;BME280;57261;47.504;19.084;2023-01-10T17:11:01;100347.78;;;14.23;68.85
68616;BME280;57261;47.504;19.084;2023-01-10T17:14:03;100332.44;;;14.18;68.51
68616;BME280;57261;47.504;19.084;2023-01-10T17:17:04;100342.84;;;14.17;69.29